sensor_id;sensor_type;location;lat;lon;timestamp;temperature;humidity
1994;DHT22;998;49.906;10.908;2023-04-24T00:02:08;13.90;99.90
1994;DHT22;998;49.906;10.908;2023-04-24T00:04:36;13.90;99.90
1994;DHT22;998;49.906;10.908;2023-04-24T00:07:06;13.90;99.90
1994;DHT22;998;49.906;10.908;2023-04-24T00:09:33;13.90;99.90
1994;DHT22;998;49.906;10.908;2023-04-24T00:12:00;14.00;99.90
1994;DHT22;998;49.906;10.908;2023-04-24T00:14:30;14.10;99.90
1994;DHT22;998;49.906;10.908;2023-04-24T00:16:57;14.10;99.90
1994;DHT22;998;49.906;10.908;2023-04-24T00:19:26;14.30;99.90
1994;DHT22;998;49.906;10.908;2023-04-24T00:21:54;14.40;99.90
1994;DHT22;998;49.906;10.908;2023-04-24T00:24:22;14.40;99.90
1994;DHT22;998;49.906;10.908;2023-04-24T00:26:49;14.40;99.90
1994;DHT22;998;49.906;10.908;2023-04-24T00:29:16;14.50;99.90
1994;DHT22;998;49.906;10.908;2023-04-24T00:31:44;14.60;99.90
1994;DHT22;998;49.906;10.908;2023-04-24T00:34:11;14.70;99.90
1994;DHT22;998;49.906;10.908;2023-04-24T00:36:40;14.60;99.90
1994;DHT22;998;49.906;10.908;2023-04-24T00:39:07;14.60;99.90
1994;DHT22;998;49.906;10.908;2023-04-24T00:41:35;14.60;99.90
1994;DHT22;998;49.906;10.908;2023-04-24T00:44:03;14.60;99.90
1994;DHT22;998;49.906;10.908;2023-04-24T00:46:30;14.50;99.90
1994;DHT22;998;49.906;10.908;2023-04-24T00:48:59;14.50;99.90
1994;DHT22;998;49.906;10.908;2023-04-24T00:51:26;14.50;99.90
1994;DHT22;998;49.906;10.908;2023-04-24T00:53:55;14.50;99.90
1994;DHT22;998;49.906;10.908;2023-04-24T00:56:22;14.40;99.90
1994;DHT22;998;49.906;10.908;2023-04-24T00:58:50;14.50;99.90
1994;DHT22;998;49.906;10.908;2023-04-24T01:01:19;14.30;99.90
1994;DHT22;998;49.906;10.908;2023-04-24T01:03:49;14.10;99.90
1994;DHT22;998;49.906;10.908;2023-04-24T01:06:18;14.10;99.90
1994;DHT22;998;49.906;10.908;2023-04-24T01:08:47;14.10;99.90
1994;DHT22;998;49.906;10.908;2023-04-24T01:11:16;14.20;99.90
1994;DHT22;998;49.906;10.908;2023-04-24T01:13:45;14.30;99.90
1994;DHT22;998;49.906;10.908;2023-04-24T01:16:13;14.20;99.90
1994;DHT22;998;49.906;10.908;2023-04-24T01:18:41;14.10;99.90
1994;DHT22;998;49.906;10.908;2023-04-24T01:21:09;14.00;99.90
1994;DHT22;998;49.906;10.908;2023-04-24T01:23:40;14.10;99.90
1994;DHT22;998;49.906;10.908;2023-04-24T01:26:07;14.00;99.90
1994;DHT22;998;49.906;10.908;2023-04-24T01:28:35;14.00;99.90
1994;DHT22;998;49.906;10.908;2023-04-24T01:31:03;14.00;99.90
1994;DHT22;998;49.906;10.908;2023-04-24T01:33:31;13.90;99.90
1994;DHT22;998;49.906;10.908;2023-04-24T01:35:58;13.80;99.90
1994;DHT22;998;49.906;10.908;2023-04-24T01:38:25;13.60;99.90
1994;DHT22;998;49.906;10.908;2023-04-24T01:40:54;13.70;99.90
1994;DHT22;998;49.906;10.908;2023-04-24T01:43:22;13.60;99.90
1994;DHT22;998;49.906;10.908;2023-04-24T01:45:50;13.60;99.90
1994;DHT22;998;49.906;10.908;2023-04-24T01:48:18;13.60;99.90
1994;DHT22;998;49.906;10.908;2023-04-24T01:50:45;13.60;99.90
1994;DHT22;998;49.906;10.908;2023-04-24T01:53:13;13.50;99.90
1994;DHT22;998;49.906;10.908;2023-04-24T01:55:40;13.50;99.90
1994;DHT22;998;49.906;10.908;2023-04-24T01:58:09;13.40;99.90
1994;DHT22;998;49.906;10.908;2023-04-24T02:00:36;13.40;99.90
1994;DHT22;998;49.906;10.908;2023-04-24T02:03:04;13.50;99.90
1994;DHT22;998;49.906;10.908;2023-04-24T02:05:31;13.50;99.90
1994;DHT22;998;49.906;10.908;2023-04-24T02:07:58;13.40;99.90
1994;DHT22;998;49.906;10.908;2023-04-24T02:10:26;13.40;99.90
1994;DHT22;998;49.906;10.908;2023-04-24T02:12:53;13.30;99.90
1994;DHT22;998;49.906;10.908;2023-04-24T02:15:22;13.20;99.90
1994;DHT22;998;49.906;10.908;2023-04-24T02:17:49;13.20;99.90
1994;DHT22;998;49.906;10.908;2023-04-24T02:20:16;13.20;99.90
1994;DHT22;998;49.906;10.908;2023-04-24T02:22:44;13.10;99.90
1994;DHT22;998;49.906;10.908;2023-04-24T02:25:12;13.20;99.90
1994;DHT22;998;49.906;10.908;2023-04-24T02:27:39;13.20;99.90
1994;DHT22;998;49.906;10.908;2023-04-24T02:30:07;13.30;99.90
1994;DHT22;998;49.906;10.908;2023-04-24T02:32:36;13.20;99.90
1994;DHT22;998;49.906;10.908;2023-04-24T02:35:05;13.10;99.90
1994;DHT22;998;49.906;10.908;2023-04-24T02:37:33;13.10;99.90
1994;DHT22;998;49.906;10.908;2023-04-24T02:40:00;13.10;99.90
1994;DHT22;998;49.906;10.908;2023-04-24T02:42:28;13.40;99.90
1994;DHT22;998;49.906;10.908;2023-04-24T02:44:55;13.30;99.90
1994;DHT22;998;49.906;10.908;2023-04-24T02:47:22;13.30;99.90
1994;DHT22;998;49.906;10.908;2023-04-24T02:49:51;13.30;99.90
1994;DHT22;998;49.906;10.908;2023-04-24T02:52:18;13.20;99.90
1994;DHT22;998;49.906;10.908;2023-04-24T02:54:46;13.10;99.90
1994;DHT22;998;49.906;10.908;2023-04-24T02:57:13;13.10;99.90
1994;DHT22;998;49.906;10.908;2023-04-24T02:59:41;12.90;99.90
1994;DHT22;998;49.906;10.908;2023-04-24T03:02:08;12.90;99.90
1994;DHT22;998;49.906;10.908;2023-04-24T03:04:36;12.90;99.90
1994;DHT22;998;49.906;10.908;2023-04-24T03:07:05;12.90;99.90
1994;DHT22;998;49.906;10.908;2023-04-24T03:09:32;12.90;99.90
1994;DHT22;998;49.906;10.908;2023-04-24T03:12:00;12.90;99.90
1994;DHT22;998;49.906;10.908;2023-04-24T03:14:27;13.00;99.90
1994;DHT22;998;49.906;10.908;2023-04-24T03:16:57;12.90;99.90
1994;DHT22;998;49.906;10.908;2023-04-24T03:19:24;12.80;99.90
1994;DHT22;998;49.906;10.908;2023-04-24T03:21:52;12.70;99.90
1994;DHT22;998;49.906;10.908;2023-04-24T03:24:20;12.80;99.90
1994;DHT22;998;49.906;10.908;2023-04-24T03:26:48;12.80;99.90
1994;DHT22;998;49.906;10.908;2023-04-24T03:29:15;12.70;99.90
1994;DHT22;998;49.906;10.908;2023-04-24T03:31:43;12.70;99.90
1994;DHT22;998;49.906;10.908;2023-04-24T03:34:10;12.70;99.90
1994;DHT22;998;49.906;10.908;2023-04-24T03:36:37;12.70;99.90
1994;DHT22;998;49.906;10.908;2023-04-24T03:39:05;12.60;99.90
1994;DHT22;998;49.906;10.908;2023-04-24T03:41:34;12.60;99.90
1994;DHT22;998;49.906;10.908;2023-04-24T03:44:01;12.60;99.90
1994;DHT22;998;49.906;10.908;2023-04-24T03:46:29;12.60;99.90
1994;DHT22;998;49.906;10.908;2023-04-24T03:48:56;12.50;99.90
1994;DHT22;998;49.906;10.908;2023-04-24T03:51:24;12.50;99.90
1994;DHT22;998;49.906;10.908;2023-04-24T03:53:53;12.50;99.90
1994;DHT22;998;49.906;10.908;2023-04-24T03:56:21;12.50;99.90
1994;DHT22;998;49.906;10.908;2023-04-24T03:58:49;12.50;99.90
1994;DHT22;998;49.906;10.908;2023-04-24T04:01:17;12.50;99.90
1994;DHT22;998;49.906;10.908;2023-04-24T04:03:46;12.50;99.90
1994;DHT22;998;49.906;10.908;2023-04-24T04:06:13;12.50;99.90
1994;DHT22;998;49.906;10.908;2023-04-24T04:08:41;12.60;99.90
1994;DHT22;998;49.906;10.908;2023-04-24T04:11:08;12.60;99.90
1994;DHT22;998;49.906;10.908;2023-04-24T04:13:35;12.60;99.90
1994;DHT22;998;49.906;10.908;2023-04-24T04:16:04;12.60;99.90
1994;DHT22;998;49.906;10.908;2023-04-24T04:18:32;12.60;99.90
1994;DHT22;998;49.906;10.908;2023-04-24T04:20:59;12.60;99.90
1994;DHT22;998;49.906;10.908;2023-04-24T04:23:27;12.50;99.90
1994;DHT22;998;49.906;10.908;2023-04-24T04:25:55;12.50;99.90
1994;DHT22;998;49.906;10.908;2023-04-24T04:28:22;12.60;99.90
1994;DHT22;998;49.906;10.908;2023-04-24T04:30:50;12.50;99.90
1994;DHT22;998;49.906;10.908;2023-04-24T04:33:20;12.60;99.90
1994;DHT22;998;49.906;10.908;2023-04-24T04:35:48;12.50;99.90
1994;DHT22;998;49.906;10.908;2023-04-24T04:38:15;12.40;99.90
1994;DHT22;998;49.906;10.908;2023-04-24T04:40:44;12.40;99.90
1994;DHT22;998;49.906;10.908;2023-04-24T04:43:12;12.40;99.90
1994;DHT22;998;49.906;10.908;2023-04-24T04:45:41;12.40;99.90
1994;DHT22;998;49.906;10.908;2023-04-24T04:48:09;12.30;99.90
1994;DHT22;998;49.906;10.908;2023-04-24T04:50:40;12.30;99.90
1994;DHT22;998;49.906;10.908;2023-04-24T04:53:07;12.30;99.90
1994;DHT22;998;49.906;10.908;2023-04-24T04:55:34;12.30;99.90
1994;DHT22;998;49.906;10.908;2023-04-24T04:58:02;12.30;99.90
1994;DHT22;998;49.906;10.908;2023-04-24T05:00:29;12.30;99.90
1994;DHT22;998;49.906;10.908;2023-04-24T05:03:01;12.30;99.90
1994;DHT22;998;49.906;10.908;2023-04-24T05:05:29;12.40;99.90
1994;DHT22;998;49.906;10.908;2023-04-24T05:07:57;12.40;99.90
1994;DHT22;998;49.906;10.908;2023-04-24T05:10:25;12.40;99.90
1994;DHT22;998;49.906;10.908;2023-04-24T05:12:52;12.40;99.90
1994;DHT22;998;49.906;10.908;2023-04-24T05:15:19;12.40;99.90
1994;DHT22;998;49.906;10.908;2023-04-24T05:17:47;12.30;99.90
1994;DHT22;998;49.906;10.908;2023-04-24T05:20:14;12.40;99.90
1994;DHT22;998;49.906;10.908;2023-04-24T05:22:42;12.30;99.90
1994;DHT22;998;49.906;10.908;2023-04-24T05:25:11;12.30;99.90
1994;DHT22;998;49.906;10.908;2023-04-24T05:27:39;12.30;99.90
1994;DHT22;998;49.906;10.908;2023-04-24T05:30:08;12.30;99.90
1994;DHT22;998;49.906;10.908;2023-04-24T05:32:36;12.30;99.90
1994;DHT22;998;49.906;10.908;2023-04-24T05:35:04;12.30;99.90
1994;DHT22;998;49.906;10.908;2023-04-24T05:37:32;12.30;99.90
1994;DHT22;998;49.906;10.908;2023-04-24T05:39:59;12.30;99.90
1994;DHT22;998;49.906;10.908;2023-04-24T05:42:29;12.30;99.90
1994;DHT22;998;49.906;10.908;2023-04-24T05:44:56;12.30;99.90
1994;DHT22;998;49.906;10.908;2023-04-24T05:47:24;12.30;99.90
1994;DHT22;998;49.906;10.908;2023-04-24T05:49:52;12.40;99.90
1994;DHT22;998;49.906;10.908;2023-04-24T05:52:20;12.40;99.90
1994;DHT22;998;49.906;10.908;2023-04-24T05:54:47;12.30;99.90
1994;DHT22;998;49.906;10.908;2023-04-24T05:57:14;12.40;99.90
1994;DHT22;998;49.906;10.908;2023-04-24T05:59:43;12.40;99.90
1994;DHT22;998;49.906;10.908;2023-04-24T06:02:11;12.50;99.90
1994;DHT22;998;49.906;10.908;2023-04-24T06:04:38;12.50;99.90
1994;DHT22;998;49.906;10.908;2023-04-24T06:07:06;12.50;99.90
1994;DHT22;998;49.906;10.908;2023-04-24T06:09:33;12.50;99.90
1994;DHT22;998;49.906;10.908;2023-04-24T06:12:01;12.60;99.90
1994;DHT22;998;49.906;10.908;2023-04-24T06:14:28;12.60;99.90
1994;DHT22;998;49.906;10.908;2023-04-24T06:16:57;12.40;99.90
1994;DHT22;998;49.906;10.908;2023-04-24T06:19:24;12.50;99.90
1994;DHT22;998;49.906;10.908;2023-04-24T06:21:52;12.50;99.90
1994;DHT22;998;49.906;10.908;2023-04-24T06:24:19;12.40;99.90
1994;DHT22;998;49.906;10.908;2023-04-24T06:26:46;12.30;99.90
1994;DHT22;998;49.906;10.908;2023-04-24T06:29:14;12.20;99.90
1994;DHT22;998;49.906;10.908;2023-04-24T06:31:41;12.20;99.90
1994;DHT22;998;49.906;10.908;2023-04-24T06:34:10;12.30;99.90
1994;DHT22;998;49.906;10.908;2023-04-24T06:36:37;12.20;99.90
1994;DHT22;998;49.906;10.908;2023-04-24T06:39:05;12.20;99.90
1994;DHT22;998;49.906;10.908;2023-04-24T06:41:32;12.20;99.90
1994;DHT22;998;49.906;10.908;2023-04-24T06:44:00;12.30;99.90
1994;DHT22;998;49.906;10.908;2023-04-24T06:46:27;12.00;99.90
1994;DHT22;998;49.906;10.908;2023-04-24T06:48:55;12.20;99.90
1994;DHT22;998;49.906;10.908;2023-04-24T06:51:24;12.30;99.90
1994;DHT22;998;49.906;10.908;2023-04-24T06:53:53;12.30;99.90
1994;DHT22;998;49.906;10.908;2023-04-24T06:56:22;12.30;99.90
1994;DHT22;998;49.906;10.908;2023-04-24T06:58:49;12.30;99.90
1994;DHT22;998;49.906;10.908;2023-04-24T07:01:16;12.40;99.90
1994;DHT22;998;49.906;10.908;2023-04-24T07:03:43;12.20;99.90
1994;DHT22;998;49.906;10.908;2023-04-24T07:06:10;12.30;99.90
1994;DHT22;998;49.906;10.908;2023-04-24T07:08:39;12.30;99.90
1994;DHT22;998;49.906;10.908;2023-04-24T07:11:08;12.20;99.90
1994;DHT22;998;49.906;10.908;2023-04-24T07:13:35;12.20;99.90
1994;DHT22;998;49.906;10.908;2023-04-24T07:16:07;12.30;99.90
1994;DHT22;998;49.906;10.908;2023-04-24T07:18:35;12.30;99.90
1994;DHT22;998;49.906;10.908;2023-04-24T07:21:03;12.30;99.90
1994;DHT22;998;49.906;10.908;2023-04-24T07:23:30;12.30;99.90
1994;DHT22;998;49.906;10.908;2023-04-24T07:25:59;12.30;99.90
1994;DHT22;998;49.906;10.908;2023-04-24T07:28:27;12.30;99.90
1994;DHT22;998;49.906;10.908;2023-04-24T07:30:56;12.30;99.90
1994;DHT22;998;49.906;10.908;2023-04-24T07:33:25;12.40;99.90
1994;DHT22;998;49.906;10.908;2023-04-24T07:35:53;12.50;99.90
1994;DHT22;998;49.906;10.908;2023-04-24T07:38:20;12.60;99.90
1994;DHT22;998;49.906;10.908;2023-04-24T07:40:48;12.60;99.90
1994;DHT22;998;49.906;10.908;2023-04-24T07:43:17;12.70;99.90
1994;DHT22;998;49.906;10.908;2023-04-24T07:45:45;12.70;99.90
1994;DHT22;998;49.906;10.908;2023-04-24T07:48:12;12.60;99.90
1994;DHT22;998;49.906;10.908;2023-04-24T07:50:42;12.60;99.90
1994;DHT22;998;49.906;10.908;2023-04-24T07:53:09;12.60;99.90
1994;DHT22;998;49.906;10.908;2023-04-24T07:55:37;12.60;99.90
1994;DHT22;998;49.906;10.908;2023-04-24T07:58:04;12.60;99.90
1994;DHT22;998;49.906;10.908;2023-04-24T08:00:33;12.70;99.90
1994;DHT22;998;49.906;10.908;2023-04-24T08:03:01;12.70;99.90
1994;DHT22;998;49.906;10.908;2023-04-24T08:05:28;12.70;99.90
1994;DHT22;998;49.906;10.908;2023-04-24T08:07:57;12.80;99.90
1994;DHT22;998;49.906;10.908;2023-04-24T08:10:25;12.80;99.90
1994;DHT22;998;49.906;10.908;2023-04-24T08:12:52;12.80;99.90
1994;DHT22;998;49.906;10.908;2023-04-24T08:15:21;12.90;99.90
1994;DHT22;998;49.906;10.908;2023-04-24T08:17:50;12.90;99.90
1994;DHT22;998;49.906;10.908;2023-04-24T08:20:17;12.90;99.90
1994;DHT22;998;49.906;10.908;2023-04-24T08:22:45;12.80;99.90
1994;DHT22;998;49.906;10.908;2023-04-24T08:25:14;12.90;99.90
1994;DHT22;998;49.906;10.908;2023-04-24T08:27:41;12.90;99.90
1994;DHT22;998;49.906;10.908;2023-04-24T08:30:10;12.90;99.90
1994;DHT22;998;49.906;10.908;2023-04-24T08:32:37;13.00;99.90
1994;DHT22;998;49.906;10.908;2023-04-24T08:35:07;13.00;99.90
1994;DHT22;998;49.906;10.908;2023-04-24T08:37:35;13.00;99.90
1994;DHT22;998;49.906;10.908;2023-04-24T08:40:06;13.00;99.90
1994;DHT22;998;49.906;10.908;2023-04-24T08:42:36;13.00;99.90
1994;DHT22;998;49.906;10.908;2023-04-24T08:45:05;13.00;99.90
1994;DHT22;998;49.906;10.908;2023-04-24T08:47:33;12.90;99.90
1994;DHT22;998;49.906;10.908;2023-04-24T08:50:02;12.90;99.90
1994;DHT22;998;49.906;10.908;2023-04-24T08:52:33;12.90;99.90
1994;DHT22;998;49.906;10.908;2023-04-24T08:55:00;12.80;99.90
1994;DHT22;998;49.906;10.908;2023-04-24T08:57:28;12.80;99.90
1994;DHT22;998;49.906;10.908;2023-04-24T08:59:58;12.80;99.90
1994;DHT22;998;49.906;10.908;2023-04-24T09:02:25;12.80;99.90
1994;DHT22;998;49.906;10.908;2023-04-24T09:04:53;12.80;99.90
1994;DHT22;998;49.906;10.908;2023-04-24T09:07:20;12.80;99.90
1994;DHT22;998;49.906;10.908;2023-04-24T09:09:50;12.80;99.90
1994;DHT22;998;49.906;10.908;2023-04-24T09:12:19;12.80;99.90
1994;DHT22;998;49.906;10.908;2023-04-24T09:14:48;12.80;99.90
1994;DHT22;998;49.906;10.908;2023-04-24T09:17:16;12.80;99.90
1994;DHT22;998;49.906;10.908;2023-04-24T09:19:44;12.80;99.90
1994;DHT22;998;49.906;10.908;2023-04-24T09:22:11;12.90;99.90
1994;DHT22;998;49.906;10.908;2023-04-24T09:24:39;12.90;99.90
1994;DHT22;998;49.906;10.908;2023-04-24T09:27:08;12.80;99.90
1994;DHT22;998;49.906;10.908;2023-04-24T09:29:38;12.90;99.90
1994;DHT22;998;49.906;10.908;2023-04-24T09:32:18;12.80;99.90
1994;DHT22;998;49.906;10.908;2023-04-24T09:34:47;12.80;99.90
1994;DHT22;998;49.906;10.908;2023-04-24T09:37:27;12.80;99.90
1994;DHT22;998;49.906;10.908;2023-04-24T09:40:08;12.80;99.90
1994;DHT22;998;49.906;10.908;2023-04-24T09:42:37;12.80;99.90
1994;DHT22;998;49.906;10.908;2023-04-24T09:45:08;12.70;99.90
1994;DHT22;998;49.906;10.908;2023-04-24T09:47:36;12.60;99.90
1994;DHT22;998;49.906;10.908;2023-04-24T09:50:14;12.60;99.90
1994;DHT22;998;49.906;10.908;2023-04-24T09:52:45;12.60;99.90
1994;DHT22;998;49.906;10.908;2023-04-24T09:55:20;12.70;99.90
1994;DHT22;998;49.906;10.908;2023-04-24T09:57:54;12.70;99.90
1994;DHT22;998;49.906;10.908;2023-04-24T10:00:26;12.70;99.90
1994;DHT22;998;49.906;10.908;2023-04-24T10:02:58;12.70;99.90
1994;DHT22;998;49.906;10.908;2023-04-24T10:05:28;12.80;99.90
1994;DHT22;998;49.906;10.908;2023-04-24T10:08:01;12.90;99.90
1994;DHT22;998;49.906;10.908;2023-04-24T10:10:29;12.80;99.90
1994;DHT22;998;49.906;10.908;2023-04-24T10:12:58;12.70;99.90
1994;DHT22;998;49.906;10.908;2023-04-24T10:15:26;12.70;99.90
1994;DHT22;998;49.906;10.908;2023-04-24T10:17:54;12.60;99.90
1994;DHT22;998;49.906;10.908;2023-04-24T10:20:22;12.70;99.90
1994;DHT22;998;49.906;10.908;2023-04-24T10:22:51;12.50;99.90
1994;DHT22;998;49.906;10.908;2023-04-24T10:25:20;12.40;99.90
1994;DHT22;998;49.906;10.908;2023-04-24T10:27:49;12.40;99.90
1994;DHT22;998;49.906;10.908;2023-04-24T10:30:19;12.40;99.90
1994;DHT22;998;49.906;10.908;2023-04-24T10:32:46;12.30;99.90
1994;DHT22;998;49.906;10.908;2023-04-24T10:35:15;12.50;99.90
1994;DHT22;998;49.906;10.908;2023-04-24T10:37:45;12.60;99.90
1994;DHT22;998;49.906;10.908;2023-04-24T10:40:17;12.70;99.90
1994;DHT22;998;49.906;10.908;2023-04-24T10:42:47;12.80;99.90
1994;DHT22;998;49.906;10.908;2023-04-24T10:45:20;12.90;99.90
1994;DHT22;998;49.906;10.908;2023-04-24T10:48:08;12.90;99.90
1994;DHT22;998;49.906;10.908;2023-04-24T10:50:43;13.00;99.90
1994;DHT22;998;49.906;10.908;2023-04-24T10:53:15;13.10;99.90
1994;DHT22;998;49.906;10.908;2023-04-24T10:55:46;13.10;99.90
1994;DHT22;998;49.906;10.908;2023-04-24T10:58:14;13.10;99.90
1994;DHT22;998;49.906;10.908;2023-04-24T11:00:48;13.20;99.90
1994;DHT22;998;49.906;10.908;2023-04-24T11:03:25;13.20;99.90
1994;DHT22;998;49.906;10.908;2023-04-24T11:05:57;13.30;99.90
1994;DHT22;998;49.906;10.908;2023-04-24T11:08:27;13.40;99.90
1994;DHT22;998;49.906;10.908;2023-04-24T11:11:06;13.30;99.90
1994;DHT22;998;49.906;10.908;2023-04-24T11:14:03;13.10;99.90
1994;DHT22;998;49.906;10.908;2023-04-24T11:16:35;13.10;99.90
1994;DHT22;998;49.906;10.908;2023-04-24T11:19:06;13.10;99.90
1994;DHT22;998;49.906;10.908;2023-04-24T11:21:41;13.20;99.90
1994;DHT22;998;49.906;10.908;2023-04-24T11:24:31;13.30;99.90
1994;DHT22;998;49.906;10.908;2023-04-24T11:27:05;13.50;99.90
1994;DHT22;998;49.906;10.908;2023-04-24T11:29:40;13.40;99.90
1994;DHT22;998;49.906;10.908;2023-04-24T11:32:17;13.30;99.90
1994;DHT22;998;49.906;10.908;2023-04-24T11:34:49;13.30;99.90
1994;DHT22;998;49.906;10.908;2023-04-24T11:37:17;13.20;99.90
1994;DHT22;998;49.906;10.908;2023-04-24T11:39:44;13.20;99.90
1994;DHT22;998;49.906;10.908;2023-04-24T11:42:15;13.30;99.90
1994;DHT22;998;49.906;10.908;2023-04-24T11:44:43;13.40;99.90
1994;DHT22;998;49.906;10.908;2023-04-24T11:47:10;13.80;99.90
1994;DHT22;998;49.906;10.908;2023-04-24T11:49:39;13.90;99.90
1994;DHT22;998;49.906;10.908;2023-04-24T11:52:07;13.90;99.90
1994;DHT22;998;49.906;10.908;2023-04-24T11:54:34;13.90;99.90
1994;DHT22;998;49.906;10.908;2023-04-24T11:57:04;13.80;99.90
1994;DHT22;998;49.906;10.908;2023-04-24T11:59:36;13.70;99.90
1994;DHT22;998;49.906;10.908;2023-04-24T12:02:03;13.70;99.90
1994;DHT22;998;49.906;10.908;2023-04-24T12:04:40;13.60;99.90
1994;DHT22;998;49.906;10.908;2023-04-24T12:07:07;13.50;99.90
1994;DHT22;998;49.906;10.908;2023-04-24T12:09:41;13.50;99.90
1994;DHT22;998;49.906;10.908;2023-04-24T12:12:09;13.40;99.90
1994;DHT22;998;49.906;10.908;2023-04-24T12:14:47;13.40;99.90
1994;DHT22;998;49.906;10.908;2023-04-24T12:17:14;13.30;99.90
1994;DHT22;998;49.906;10.908;2023-04-24T12:19:47;13.20;99.90
1994;DHT22;998;49.906;10.908;2023-04-24T12:22:14;13.20;99.90
1994;DHT22;998;49.906;10.908;2023-04-24T12:24:57;13.20;99.90
1994;DHT22;998;49.906;10.908;2023-04-24T12:27:25;13.30;99.90
1994;DHT22;998;49.906;10.908;2023-04-24T12:29:52;13.80;99.90
1994;DHT22;998;49.906;10.908;2023-04-24T12:32:20;14.60;99.90
1994;DHT22;998;49.906;10.908;2023-04-24T12:34:49;14.50;99.90
1994;DHT22;998;49.906;10.908;2023-04-24T12:37:17;14.30;99.90
1994;DHT22;998;49.906;10.908;2023-04-24T12:40:01;14.10;99.90
1994;DHT22;998;49.906;10.908;2023-04-24T12:42:29;13.90;99.90
1994;DHT22;998;49.906;10.908;2023-04-24T12:44:58;13.70;99.90
1994;DHT22;998;49.906;10.908;2023-04-24T12:47:27;13.60;99.90
1994;DHT22;998;49.906;10.908;2023-04-24T12:49:57;13.50;99.90
1994;DHT22;998;49.906;10.908;2023-04-24T12:52:24;13.40;99.90
1994;DHT22;998;49.906;10.908;2023-04-24T12:54:54;13.30;99.90
1994;DHT22;998;49.906;10.908;2023-04-24T12:57:21;13.20;99.90
1994;DHT22;998;49.906;10.908;2023-04-24T12:59:49;13.30;99.90
1994;DHT22;998;49.906;10.908;2023-04-24T13:02:17;13.30;99.90
1994;DHT22;998;49.906;10.908;2023-04-24T13:04:44;13.70;99.90
1994;DHT22;998;49.906;10.908;2023-04-24T13:07:15;13.80;99.90
1994;DHT22;998;49.906;10.908;2023-04-24T13:09:42;14.00;99.90
1994;DHT22;998;49.906;10.908;2023-04-24T13:12:11;14.20;99.90
1994;DHT22;998;49.906;10.908;2023-04-24T13:14:38;14.10;99.90
1994;DHT22;998;49.906;10.908;2023-04-24T13:17:06;13.90;99.90
1994;DHT22;998;49.906;10.908;2023-04-24T13:19:36;13.80;99.90
1994;DHT22;998;49.906;10.908;2023-04-24T13:22:03;13.50;99.90
1994;DHT22;998;49.906;10.908;2023-04-24T13:24:32;13.50;99.90
1994;DHT22;998;49.906;10.908;2023-04-24T13:26:59;13.40;99.90
1994;DHT22;998;49.906;10.908;2023-04-24T13:29:27;13.40;99.90
1994;DHT22;998;49.906;10.908;2023-04-24T13:31:54;14.10;99.90
1994;DHT22;998;49.906;10.908;2023-04-24T13:34:22;14.80;99.90
1994;DHT22;998;49.906;10.908;2023-04-24T13:36:49;15.30;99.90
1994;DHT22;998;49.906;10.908;2023-04-24T13:39:17;15.30;99.90
1994;DHT22;998;49.906;10.908;2023-04-24T13:41:45;15.20;99.90
1994;DHT22;998;49.906;10.908;2023-04-24T13:44:13;15.00;99.90
1994;DHT22;998;49.906;10.908;2023-04-24T13:46:40;14.70;99.90
1994;DHT22;998;49.906;10.908;2023-04-24T13:49:08;14.40;99.90
1994;DHT22;998;49.906;10.908;2023-04-24T13:51:35;14.30;99.90
1994;DHT22;998;49.906;10.908;2023-04-24T13:54:01;14.20;99.90
1994;DHT22;998;49.906;10.908;2023-04-24T13:56:28;14.10;99.90
1994;DHT22;998;49.906;10.908;2023-04-24T13:58:57;14.10;99.90
1994;DHT22;998;49.906;10.908;2023-04-24T14:01:24;14.00;99.90
1994;DHT22;998;49.906;10.908;2023-04-24T14:03:51;14.00;99.90
1994;DHT22;998;49.906;10.908;2023-04-24T14:06:18;13.90;99.90
1994;DHT22;998;49.906;10.908;2023-04-24T14:08:46;13.80;99.90
1994;DHT22;998;49.906;10.908;2023-04-24T14:11:14;13.70;99.90
1994;DHT22;998;49.906;10.908;2023-04-24T14:13:41;13.40;99.90
1994;DHT22;998;49.906;10.908;2023-04-24T14:16:10;13.20;99.90
1994;DHT22;998;49.906;10.908;2023-04-24T14:18:37;12.90;99.90
1994;DHT22;998;49.906;10.908;2023-04-24T14:21:05;12.70;99.90
1994;DHT22;998;49.906;10.908;2023-04-24T14:23:33;12.70;99.90
1994;DHT22;998;49.906;10.908;2023-04-24T14:26:00;12.70;99.90
1994;DHT22;998;49.906;10.908;2023-04-24T14:28:27;12.60;99.90
1994;DHT22;998;49.906;10.908;2023-04-24T14:30:55;12.50;99.90
1994;DHT22;998;49.906;10.908;2023-04-24T14:33:24;12.60;99.90
1994;DHT22;998;49.906;10.908;2023-04-24T14:35:51;12.70;99.90
1994;DHT22;998;49.906;10.908;2023-04-24T14:38:19;12.70;99.90
1994;DHT22;998;49.906;10.908;2023-04-24T14:40:46;12.70;99.90
1994;DHT22;998;49.906;10.908;2023-04-24T14:43:13;12.70;99.90
1994;DHT22;998;49.906;10.908;2023-04-24T14:45:41;12.80;99.90
1994;DHT22;998;49.906;10.908;2023-04-24T14:48:08;12.80;99.90
1994;DHT22;998;49.906;10.908;2023-04-24T14:50:38;12.70;99.90
1994;DHT22;998;49.906;10.908;2023-04-24T14:53:05;12.70;99.90
1994;DHT22;998;49.906;10.908;2023-04-24T14:55:33;12.70;99.90
1994;DHT22;998;49.906;10.908;2023-04-24T14:58:02;12.80;99.90
1994;DHT22;998;49.906;10.908;2023-04-24T15:00:29;13.00;99.90
1994;DHT22;998;49.906;10.908;2023-04-24T15:02:57;13.00;99.90
1994;DHT22;998;49.906;10.908;2023-04-24T15:05:25;13.10;99.90
1994;DHT22;998;49.906;10.908;2023-04-24T15:07:53;13.10;99.90
1994;DHT22;998;49.906;10.908;2023-04-24T15:10:21;13.00;99.90
1994;DHT22;998;49.906;10.908;2023-04-24T15:12:51;13.00;99.90
1994;DHT22;998;49.906;10.908;2023-04-24T15:15:18;13.00;99.90
1994;DHT22;998;49.906;10.908;2023-04-24T15:17:46;13.00;99.90
1994;DHT22;998;49.906;10.908;2023-04-24T15:20:13;12.90;99.90
1994;DHT22;998;49.906;10.908;2023-04-24T15:22:41;12.90;99.90
1994;DHT22;998;49.906;10.908;2023-04-24T15:25:10;12.90;99.90
1994;DHT22;998;49.906;10.908;2023-04-24T15:27:41;12.90;99.90
1994;DHT22;998;49.906;10.908;2023-04-24T15:30:10;12.80;99.90
1994;DHT22;998;49.906;10.908;2023-04-24T15:32:38;12.60;99.90
1994;DHT22;998;49.906;10.908;2023-04-24T15:35:06;12.50;99.90
1994;DHT22;998;49.906;10.908;2023-04-24T15:37:34;12.50;99.90
1994;DHT22;998;49.906;10.908;2023-04-24T15:40:01;12.40;99.90
1994;DHT22;998;49.906;10.908;2023-04-24T15:42:31;12.50;99.90
1994;DHT22;998;49.906;10.908;2023-04-24T15:44:59;12.40;99.90
1994;DHT22;998;49.906;10.908;2023-04-24T15:47:26;12.50;99.90
1994;DHT22;998;49.906;10.908;2023-04-24T15:49:54;12.50;99.90
1994;DHT22;998;49.906;10.908;2023-04-24T15:52:21;12.50;99.90
1994;DHT22;998;49.906;10.908;2023-04-24T15:54:49;12.50;99.90
1994;DHT22;998;49.906;10.908;2023-04-24T15:57:16;12.50;99.90
1994;DHT22;998;49.906;10.908;2023-04-24T15:59:45;12.60;99.90
1994;DHT22;998;49.906;10.908;2023-04-24T16:02:13;12.70;99.90
1994;DHT22;998;49.906;10.908;2023-04-24T16:04:44;12.70;99.90
1994;DHT22;998;49.906;10.908;2023-04-24T16:07:12;12.70;99.90
1994;DHT22;998;49.906;10.908;2023-04-24T16:09:40;12.70;99.90
1994;DHT22;998;49.906;10.908;2023-04-24T16:12:08;12.60;99.90